sensor_id;sensor_type;location;lat;lon;timestamp;P1;durP1;ratioP1;P2;durP2;ratioP2
14603;SDS011;7388;51.078;13.740;2022-12-07T00:00:43;11.63;;;8.63;;
14603;SDS011;7388;51.078;13.740;2022-12-07T00:03:08;13.33;;;8.73;;
14603;SDS011;7388;51.078;13.740;2022-12-07T00:05:34;16.33;;;8.30;;
14603;SDS011;7388;51.078;13.740;2022-12-07T00:08:00;13.03;;;8.90;;
14603;SDS011;7388;51.078;13.740;2022-12-07T00:10:25;10.40;;;7.53;;
14603;SDS011;7388;51.078;13.740;2022-12-07T00:12:51;11.10;;;8.17;;
14603;SDS011;7388;51.078;13.740;2022-12-07T00:15:17;10.47;;;8.23;;
14603;SDS011;7388;51.078;13.740;2022-12-07T00:17:42;9.40;;;6.57;;
14603;SDS011;7388;51.078;13.740;2022-12-07T00:20:08;10.77;;;7.13;;
14603;SDS011;7388;51.078;13.740;2022-12-07T00:22:34;13.00;;;7.97;;
14603;SDS011;7388;51.078;13.740;2022-12-07T00:25:00;10.57;;;8.33;;
14603;SDS011;7388;51.078;13.740;2022-12-07T00:27:26;14.37;;;8.80;;
14603;SDS011;7388;51.078;13.740;2022-12-07T00:29:52;12.88;;;8.57;;
14603;SDS011;7388;51.078;13.740;2022-12-07T00:32:18;11.17;;;8.30;;
14603;SDS011;7388;51.078;13.740;2022-12-07T00:34:43;12.00;;;8.07;;
14603;SDS011;7388;51.078;13.740;2022-12-07T00:37:09;10.37;;;7.70;;
14603;SDS011;7388;51.078;13.740;2022-12-07T00:39:35;13.70;;;8.00;;
14603;SDS011;7388;51.078;13.740;2022-12-07T00:42:01;13.50;;;8.77;;
14603;SDS011;7388;51.078;13.740;2022-12-07T00:44:26;13.30;;;10.27;;
14603;SDS011;7388;51.078;13.740;2022-12-07T00:46:52;14.67;;;9.17;;
14603;SDS011;7388;51.078;13.740;2022-12-07T00:49:18;14.30;;;8.97;;
14603;SDS011;7388;51.078;13.740;2022-12-07T00:51:43;14.20;;;9.03;;
14603;SDS011;7388;51.078;13.740;2022-12-07T00:54:09;12.30;;;8.27;;
14603;SDS011;7388;51.078;13.740;2022-12-07T00:56:35;11.87;;;7.60;;
14603;SDS011;7388;51.078;13.740;2022-12-07T00:59:02;16.27;;;9.50;;
14603;SDS011;7388;51.078;13.740;2022-12-07T01:01:29;13.88;;;8.75;;
14603;SDS011;7388;51.078;13.740;2022-12-07T01:03:57;11.65;;;7.47;;
14603;SDS011;7388;51.078;13.740;2022-12-07T01:06:23;14.60;;;8.95;;
14603;SDS011;7388;51.078;13.740;2022-12-07T01:08:50;17.23;;;7.85;;
14603;SDS011;7388;51.078;13.740;2022-12-07T01:11:18;10.13;;;7.88;;
14603;SDS011;7388;51.078;13.740;2022-12-07T01:13:45;18.92;;;8.65;;
14603;SDS011;7388;51.078;13.740;2022-12-07T01:16:13;11.93;;;7.93;;
14603;SDS011;7388;51.078;13.740;2022-12-07T01:18:40;13.55;;;8.80;;
14603;SDS011;7388;51.078;13.740;2022-12-07T01:21:09;15.38;;;9.95;;
14603;SDS011;7388;51.078;13.740;2022-12-07T01:23:37;11.80;;;8.40;;
14603;SDS011;7388;51.078;13.740;2022-12-07T01:26:04;16.70;;;9.07;;
14603;SDS011;7388;51.078;13.740;2022-12-07T01:28:32;14.88;;;9.05;;
14603;SDS011;7388;51.078;13.740;2022-12-07T01:30:59;20.33;;;9.73;;
14603;SDS011;7388;51.078;13.740;2022-12-07T01:33:28;14.15;;;9.38;;
14603;SDS011;7388;51.078;13.740;2022-12-07T01:36:00;17.63;;;11.15;;
14603;SDS011;7388;51.078;13.740;2022-12-07T01:38:30;12.75;;;8.30;;
14603;SDS011;7388;51.078;13.740;2022-12-07T01:40:58;15.60;;;9.38;;
14603;SDS011;7388;51.078;13.740;2022-12-07T01:43:26;14.13;;;9.05;;
14603;SDS011;7388;51.078;13.740;2022-12-07T01:45:53;15.82;;;9.35;;
14603;SDS011;7388;51.078;13.740;2022-12-07T01:48:31;15.73;;;9.35;;
14603;SDS011;7388;51.078;13.740;2022-12-07T01:51:00;16.40;;;9.10;;
14603;SDS011;7388;51.078;13.740;2022-12-07T01:53:30;16.08;;;9.57;;
14603;SDS011;7388;51.078;13.740;2022-12-07T01:56:00;15.80;;;9.88;;
14603;SDS011;7388;51.078;13.740;2022-12-07T01:58:26;20.20;;;9.43;;
14603;SDS011;7388;51.078;13.740;2022-12-07T02:00:53;14.00;;;9.68;;
14603;SDS011;7388;51.078;13.740;2022-12-07T02:05:47;19.60;;;10.27;;
14603;SDS011;7388;51.078;13.740;2022-12-07T02:08:15;15.15;;;8.38;;
14603;SDS011;7388;51.078;13.740;2022-12-07T02:10:42;13.15;;;7.72;;
14603;SDS011;7388;51.078;13.740;2022-12-07T02:13:09;12.30;;;8.17;;
14603;SDS011;7388;51.078;13.740;2022-12-07T02:26:42;16.80;;;8.55;;
14603;SDS011;7388;51.078;13.740;2022-12-07T02:29:30;10.32;;;6.97;;
14603;SDS011;7388;51.078;13.740;2022-12-07T02:35:05;10.32;;;6.75;;
14603;SDS011;7388;51.078;13.740;2022-12-07T02:37:55;9.18;;;6.78;;
14603;SDS011;7388;51.078;13.740;2022-12-07T02:43:21;7.55;;;5.80;;
14603;SDS011;7388;51.078;13.740;2022-12-07T02:45:50;9.75;;;7.10;;
14603;SDS011;7388;51.078;13.740;2022-12-07T02:48:18;10.98;;;8.20;;
14603;SDS011;7388;51.078;13.740;2022-12-07T02:50:49;9.38;;;6.68;;
14603;SDS011;7388;51.078;13.740;2022-12-07T02:53:32;12.07;;;6.50;;
14603;SDS011;7388;51.078;13.740;2022-12-07T02:56:00;7.50;;;5.95;;
14603;SDS011;7388;51.078;13.740;2022-12-07T02:58:46;10.88;;;6.93;;
14603;SDS011;7388;51.078;13.740;2022-12-07T03:07:04;10.20;;;6.80;;
14603;SDS011;7388;51.078;13.740;2022-12-07T03:09:37;8.10;;;5.88;;
14603;SDS011;7388;51.078;13.740;2022-12-07T03:12:11;8.82;;;6.20;;
14603;SDS011;7388;51.078;13.740;2022-12-07T03:14:45;10.60;;;7.20;;
14603;SDS011;7388;51.078;13.740;2022-12-07T03:17:19;9.32;;;6.10;;
14603;SDS011;7388;51.078;13.740;2022-12-07T03:19:50;10.13;;;7.20;;
14603;SDS011;7388;51.078;13.740;2022-12-07T03:22:19;10.73;;;6.60;;
14603;SDS011;7388;51.078;13.740;2022-12-07T03:24:47;11.50;;;5.85;;
14603;SDS011;7388;51.078;13.740;2022-12-07T03:28:18;8.85;;;5.85;;
14603;SDS011;7388;51.078;13.740;2022-12-07T03:30:21;9.88;;;5.55;;
14603;SDS011;7388;51.078;13.740;2022-12-07T03:32:59;9.73;;;6.50;;
14603;SDS011;7388;51.078;13.740;2022-12-07T03:35:42;8.18;;;5.65;;
14603;SDS011;7388;51.078;13.740;2022-12-07T03:38:15;9.73;;;5.38;;
14603;SDS011;7388;51.078;13.740;2022-12-07T03:41:26;7.43;;;5.85;;
14603;SDS011;7388;51.078;13.740;2022-12-07T03:43:55;9.02;;;6.55;;
14603;SDS011;7388;51.078;13.740;2022-12-07T03:49:11;9.45;;;6.25;;
14603;SDS011;7388;51.078;13.740;2022-12-07T03:54:45;10.02;;;7.53;;
14603;SDS011;7388;51.078;13.740;2022-12-07T03:57:12;9.75;;;5.95;;
14603;SDS011;7388;51.078;13.740;2022-12-07T03:59:39;9.90;;;6.45;;
14603;SDS011;7388;51.078;13.740;2022-12-07T04:02:07;9.50;;;7.13;;
14603;SDS011;7388;51.078;13.740;2022-12-07T04:04:33;10.75;;;7.82;;
14603;SDS011;7388;51.078;13.740;2022-12-07T04:06:59;9.55;;;7.72;;
14603;SDS011;7388;51.078;13.740;2022-12-07T04:09:26;17.00;;;6.25;;
14603;SDS011;7388;51.078;13.740;2022-12-07T04:11:52;13.55;;;7.70;;
14603;SDS011;7388;51.078;13.740;2022-12-07T04:14:18;13.00;;;6.70;;
14603;SDS011;7388;51.078;13.740;2022-12-07T04:16:50;9.07;;;6.53;;
14603;SDS011;7388;51.078;13.740;2022-12-07T04:19:19;12.75;;;8.57;;
14603;SDS011;7388;51.078;13.740;2022-12-07T04:21:46;13.73;;;8.77;;
14603;SDS011;7388;51.078;13.740;2022-12-07T04:24:13;10.73;;;7.38;;
14603;SDS011;7388;51.078;13.740;2022-12-07T04:26:39;12.70;;;8.82;;
14603;SDS011;7388;51.078;13.740;2022-12-07T04:29:05;11.27;;;8.10;;
14603;SDS011;7388;51.078;13.740;2022-12-07T04:31:31;14.60;;;8.10;;
14603;SDS011;7388;51.078;13.740;2022-12-07T04:33:57;14.50;;;8.80;;
14603;SDS011;7388;51.078;13.740;2022-12-07T04:36:23;18.20;;;9.57;;
14603;SDS011;7388;51.078;13.740;2022-12-07T04:38:49;12.53;;;8.93;;
14603;SDS011;7388;51.078;13.740;2022-12-07T04:41:14;15.53;;;10.10;;
14603;SDS011;7388;51.078;13.740;2022-12-07T04:43:40;16.53;;;9.90;;
14603;SDS011;7388;51.078;13.740;2022-12-07T04:46:06;12.80;;;9.70;;
14603;SDS011;7388;51.078;13.740;2022-12-07T04:48:32;14.43;;;9.33;;
14603;SDS011;7388;51.078;13.740;2022-12-07T04:50:57;14.03;;;9.13;;
14603;SDS011;7388;51.078;13.740;2022-12-07T04:53:23;15.73;;;9.10;;
14603;SDS011;7388;51.078;13.740;2022-12-07T04:55:49;15.30;;;10.13;;
14603;SDS011;7388;51.078;13.740;2022-12-07T04:58:15;11.50;;;8.50;;
14603;SDS011;7388;51.078;13.740;2022-12-07T05:00:40;13.87;;;9.23;;
14603;SDS011;7388;51.078;13.740;2022-12-07T05:03:06;15.40;;;9.30;;
14603;SDS011;7388;51.078;13.740;2022-12-07T05:05:32;13.40;;;9.13;;
14603;SDS011;7388;51.078;13.740;2022-12-07T05:07:58;11.52;;;8.13;;
14603;SDS011;7388;51.078;13.740;2022-12-07T05:10:24;12.03;;;8.80;;
14603;SDS011;7388;51.078;13.740;2022-12-07T05:12:49;13.73;;;8.30;;
14603;SDS011;7388;51.078;13.740;2022-12-07T05:15:15;14.00;;;8.33;;
14603;SDS011;7388;51.078;13.740;2022-12-07T05:17:41;15.43;;;8.00;;
14603;SDS011;7388;51.078;13.740;2022-12-07T05:20:07;11.52;;;8.65;;
14603;SDS011;7388;51.078;13.740;2022-12-07T05:22:34;12.55;;;7.40;;
14603;SDS011;7388;51.078;13.740;2022-12-07T05:25:00;13.07;;;7.90;;
14603;SDS011;7388;51.078;13.740;2022-12-07T05:27:26;11.30;;;7.18;;
14603;SDS011;7388;51.078;13.740;2022-12-07T05:29:52;14.30;;;9.07;;
14603;SDS011;7388;51.078;13.740;2022-12-07T05:32:18;10.80;;;8.30;;
14603;SDS011;7388;51.078;13.740;2022-12-07T05:34:43;12.90;;;8.50;;
14603;SDS011;7388;51.078;13.740;2022-12-07T05:37:09;15.77;;;7.60;;
14603;SDS011;7388;51.078;13.740;2022-12-07T05:39:35;9.80;;;6.70;;
14603;SDS011;7388;51.078;13.740;2022-12-07T05:42:02;12.25;;;8.38;;
14603;SDS011;7388;51.078;13.740;2022-12-07T05:44:40;12.85;;;8.00;;
14603;SDS011;7388;51.078;13.740;2022-12-07T05:47:08;15.18;;;7.07;;
14603;SDS011;7388;51.078;13.740;2022-12-07T05:49:34;12.50;;;8.20;;
14603;SDS011;7388;51.078;13.740;2022-12-07T05:51:59;13.00;;;7.53;;
14603;SDS011;7388;51.078;13.740;2022-12-07T05:54:25;11.80;;;8.00;;
14603;SDS011;7388;51.078;13.740;2022-12-07T05:56:51;14.18;;;7.45;;
14603;SDS011;7388;51.078;13.740;2022-12-07T05:59:17;9.93;;;7.23;;
14603;SDS011;7388;51.078;13.740;2022-12-07T06:04:16;10.32;;;6.93;;
14603;SDS011;7388;51.078;13.740;2022-12-07T06:06:42;10.80;;;6.93;;
14603;SDS011;7388;51.078;13.740;2022-12-07T06:09:07;11.07;;;7.57;;
14603;SDS011;7388;51.078;13.740;2022-12-07T06:11:33;9.10;;;6.37;;
14603;SDS011;7388;51.078;13.740;2022-12-07T06:14:18;9.75;;;6.45;;
14603;SDS011;7388;51.078;13.740;2022-12-07T06:16:43;11.70;;;7.63;;
14603;SDS011;7388;51.078;13.740;2022-12-07T06:19:09;11.47;;;8.83;;
14603;SDS011;7388;51.078;13.740;2022-12-07T06:21:35;8.10;;;6.33;;
14603;SDS011;7388;51.078;13.740;2022-12-07T06:24:01;11.67;;;7.13;;
14603;SDS011;7388;51.078;13.740;2022-12-07T06:26:27;11.27;;;6.30;;
14603;SDS011;7388;51.078;13.740;2022-12-07T06:28:52;10.52;;;7.45;;
14603;SDS011;7388;51.078;13.740;2022-12-07T06:31:18;7.90;;;6.23;;
14603;SDS011;7388;51.078;13.740;2022-12-07T06:33:44;8.50;;;5.70;;
14603;SDS011;7388;51.078;13.740;2022-12-07T06:36:10;7.73;;;5.40;;
14603;SDS011;7388;51.078;13.740;2022-12-07T06:38:36;8.00;;;5.57;;
14603;SDS011;7388;51.078;13.740;2022-12-07T06:41:02;6.23;;;4.23;;
14603;SDS011;7388;51.078;13.740;2022-12-07T06:43:28;6.77;;;4.60;;
14603;SDS011;7388;51.078;13.740;2022-12-07T06:45:54;7.28;;;5.55;;
14603;SDS011;7388;51.078;13.740;2022-12-07T06:48:20;6.07;;;4.50;;
14603;SDS011;7388;51.078;13.740;2022-12-07T06:50:46;5.80;;;4.10;;
14603;SDS011;7388;51.078;13.740;2022-12-07T06:53:13;6.50;;;4.35;;
14603;SDS011;7388;51.078;13.740;2022-12-07T06:55:39;5.70;;;4.97;;
14603;SDS011;7388;51.078;13.740;2022-12-07T06:58:05;6.13;;;4.10;;
14603;SDS011;7388;51.078;13.740;2022-12-07T07:00:30;8.10;;;5.27;;
14603;SDS011;7388;51.078;13.740;2022-12-07T07:02:56;7.50;;;4.50;;
14603;SDS011;7388;51.078;13.740;2022-12-07T07:05:22;7.90;;;4.97;;
14603;SDS011;7388;51.078;13.740;2022-12-07T07:07:48;4.80;;;3.57;;
14603;SDS011;7388;51.078;13.740;2022-12-07T07:10:14;6.93;;;4.50;;
14603;SDS011;7388;51.078;13.740;2022-12-07T07:12:40;7.37;;;5.27;;
14603;SDS011;7388;51.078;13.740;2022-12-07T07:15:06;7.73;;;4.53;;
14603;SDS011;7388;51.078;13.740;2022-12-07T07:17:32;5.57;;;4.88;;
14603;SDS011;7388;51.078;13.740;2022-12-07T07:19:58;8.00;;;5.57;;
14603;SDS011;7388;51.078;13.740;2022-12-07T07:22:23;4.73;;;3.87;;
14603;SDS011;7388;51.078;13.740;2022-12-07T07:24:49;7.37;;;5.20;;
14603;SDS011;7388;51.078;13.740;2022-12-07T07:27:15;7.93;;;5.30;;
14603;SDS011;7388;51.078;13.740;2022-12-07T07:29:40;7.93;;;5.07;;
14603;SDS011;7388;51.078;13.740;2022-12-07T07:32:06;11.70;;;6.07;;
14603;SDS011;7388;51.078;13.740;2022-12-07T07:34:32;7.68;;;5.50;;
14603;SDS011;7388;51.078;13.740;2022-12-07T07:36:58;6.75;;;4.60;;
14603;SDS011;7388;51.078;13.740;2022-12-07T07:39:24;7.63;;;5.00;;
14603;SDS011;7388;51.078;13.740;2022-12-07T07:41:50;6.57;;;4.70;;
14603;SDS011;7388;51.078;13.740;2022-12-07T07:44:16;8.83;;;5.23;;
14603;SDS011;7388;51.078;13.740;2022-12-07T07:46:41;6.30;;;4.63;;
14603;SDS011;7388;51.078;13.740;2022-12-07T07:49:08;7.50;;;5.60;;
14603;SDS011;7388;51.078;13.740;2022-12-07T07:51:35;8.05;;;5.50;;
14603;SDS011;7388;51.078;13.740;2022-12-07T07:54:01;6.97;;;5.37;;
14603;SDS011;7388;51.078;13.740;2022-12-07T07:56:27;6.10;;;4.53;;
14603;SDS011;7388;51.078;13.740;2022-12-07T07:58:53;6.63;;;5.60;;
14603;SDS011;7388;51.078;13.740;2022-12-07T08:01:20;7.10;;;4.63;;
14603;SDS011;7388;51.078;13.740;2022-12-07T08:03:46;7.03;;;5.43;;
14603;SDS011;7388;51.078;13.740;2022-12-07T08:06:12;13.50;;;6.50;;
14603;SDS011;7388;51.078;13.740;2022-12-07T08:08:38;12.80;;;7.53;;
14603;SDS011;7388;51.078;13.740;2022-12-07T08:11:07;10.80;;;6.70;;
14603;SDS011;7388;51.078;13.740;2022-12-07T08:13:34;10.60;;;7.10;;
14603;SDS011;7388;51.078;13.740;2022-12-07T08:16:03;11.23;;;7.32;;
14603;SDS011;7388;51.078;13.740;2022-12-07T08:18:30;9.88;;;7.43;;
14603;SDS011;7388;51.078;13.740;2022-12-07T08:21:00;9.90;;;6.00;;
14603;SDS011;7388;51.078;13.740;2022-12-07T08:23:26;12.70;;;9.02;;
14603;SDS011;7388;51.078;13.740;2022-12-07T08:25:52;9.82;;;7.65;;
14603;SDS011;7388;51.078;13.740;2022-12-07T08:28:17;11.63;;;6.30;;
14603;SDS011;7388;51.078;13.740;2022-12-07T08:30:43;8.80;;;7.30;;
14603;SDS011;7388;51.078;13.740;2022-12-07T08:33:09;10.63;;;8.40;;
14603;SDS011;7388;51.078;13.740;2022-12-07T08:35:35;9.80;;;7.43;;
14603;SDS011;7388;51.078;13.740;2022-12-07T08:38:02;12.85;;;9.00;;
14603;SDS011;7388;51.078;13.740;2022-12-07T08:40:29;13.77;;;7.80;;
14603;SDS011;7388;51.078;13.740;2022-12-07T08:42:55;9.93;;;7.22;;
14603;SDS011;7388;51.078;13.740;2022-12-07T08:45:21;11.73;;;7.10;;
14603;SDS011;7388;51.078;13.740;2022-12-07T08:50:26;11.07;;;8.65;;
14603;SDS011;7388;51.078;13.740;2022-12-07T08:52:52;11.93;;;7.35;;
14603;SDS011;7388;51.078;13.740;2022-12-07T08:55:20;13.10;;;6.57;;
14603;SDS011;7388;51.078;13.740;2022-12-07T08:57:46;10.20;;;6.95;;
14603;SDS011;7388;51.078;13.740;2022-12-07T09:00:12;7.95;;;6.38;;
14603;SDS011;7388;51.078;13.740;2022-12-07T09:12:44;9.10;;;6.40;;
14603;SDS011;7388;51.078;13.740;2022-12-07T09:15:10;9.40;;;7.03;;
14603;SDS011;7388;51.078;13.740;2022-12-07T09:17:36;7.13;;;6.00;;
14603;SDS011;7388;51.078;13.740;2022-12-07T09:20:03;9.95;;;6.40;;
14603;SDS011;7388;51.078;13.740;2022-12-07T09:22:30;10.70;;;6.72;;
14603;SDS011;7388;51.078;13.740;2022-12-07T09:24:59;9.18;;;6.55;;
14603;SDS011;7388;51.078;13.740;2022-12-07T09:27:25;10.00;;;5.85;;
14603;SDS011;7388;51.078;13.740;2022-12-07T09:29:51;10.43;;;6.57;;
14603;SDS011;7388;51.078;13.740;2022-12-07T09:32:17;9.70;;;6.27;;
14603;SDS011;7388;51.078;13.740;2022-12-07T09:34:43;7.77;;;5.70;;
14603;SDS011;7388;51.078;13.740;2022-12-07T09:37:09;12.40;;;7.13;;
14603;SDS011;7388;51.078;13.740;2022-12-07T09:39:37;7.70;;;5.15;;
14603;SDS011;7388;51.078;13.740;2022-12-07T09:42:03;10.35;;;6.78;;
14603;SDS011;7388;51.078;13.740;2022-12-07T09:44:31;8.43;;;5.30;;
14603;SDS011;7388;51.078;13.740;2022-12-07T09:46:59;12.30;;;6.53;;
14603;SDS011;7388;51.078;13.740;2022-12-07T09:49:25;8.60;;;6.45;;
14603;SDS011;7388;51.078;13.740;2022-12-07T09:54:34;6.70;;;5.30;;
14603;SDS011;7388;51.078;13.740;2022-12-07T09:57:03;7.00;;;4.55;;
14603;SDS011;7388;51.078;13.740;2022-12-07T09:59:29;7.77;;;4.90;;
14603;SDS011;7388;51.078;13.740;2022-12-07T10:01:55;6.20;;;5.10;;
14603;SDS011;7388;51.078;13.740;2022-12-07T10:04:21;8.87;;;5.90;;
14603;SDS011;7388;51.078;13.740;2022-12-07T10:06:49;7.43;;;5.68;;
14603;SDS011;7388;51.078;13.740;2022-12-07T10:09:17;8.50;;;4.60;;
14603;SDS011;7388;51.078;13.740;2022-12-07T10:14:37;5.85;;;4.82;;
14603;SDS011;7388;51.078;13.740;2022-12-07T10:17:38;11.82;;;6.20;;
14603;SDS011;7388;51.078;13.740;2022-12-07T10:23:00;8.75;;;5.32;;
14603;SDS011;7388;51.078;13.740;2022-12-07T10:25:32;6.97;;;4.93;;
14603;SDS011;7388;51.078;13.740;2022-12-07T10:28:13;9.00;;;4.45;;
14603;SDS011;7388;51.078;13.740;2022-12-07T10:33:27;9.50;;;5.90;;
14603;SDS011;7388;51.078;13.740;2022-12-07T10:35:56;18.70;;;6.03;;
14603;SDS011;7388;51.078;13.740;2022-12-07T10:38:22;8.82;;;5.18;;
14603;SDS011;7388;51.078;13.740;2022-12-07T10:41:05;7.25;;;5.03;;
14603;SDS011;7388;51.078;13.740;2022-12-07T10:43:32;10.27;;;5.75;;
14603;SDS011;7388;51.078;13.740;2022-12-07T10:46:18;5.50;;;4.20;;
14603;SDS011;7388;51.078;13.740;2022-12-07T11:02:44;11.63;;;6.22;;
14603;SDS011;7388;51.078;13.740;2022-12-07T11:11:46;9.05;;;6.63;;
14603;SDS011;7388;51.078;13.740;2022-12-07T11:17:07;9.82;;;5.70;;
14603;SDS011;7388;51.078;13.740;2022-12-07T11:25:29;9.02;;;6.28;;
14603;SDS011;7388;51.078;13.740;2022-12-07T11:28:07;9.60;;;5.90;;
14603;SDS011;7388;51.078;13.740;2022-12-07T11:36:47;6.38;;;4.65;;
14603;SDS011;7388;51.078;13.740;2022-12-07T11:41:57;8.85;;;5.38;;
14603;SDS011;7388;51.078;13.740;2022-12-07T11:47:10;7.10;;;5.10;;
14603;SDS011;7388;51.078;13.740;2022-12-07T11:49:44;15.18;;;5.70;;
14603;SDS011;7388;51.078;13.740;2022-12-07T11:52:58;7.35;;;5.53;;
14603;SDS011;7388;51.078;13.740;2022-12-07T11:58:49;8.80;;;4.65;;
14603;SDS011;7388;51.078;13.740;2022-12-07T12:00:54;9.38;;;4.78;;
14603;SDS011;7388;51.078;13.740;2022-12-07T12:03:33;20.55;;;6.72;;
14603;SDS011;7388;51.078;13.740;2022-12-07T12:06:00;8.65;;;6.47;;
14603;SDS011;7388;51.078;13.740;2022-12-07T12:10:55;9.75;;;7.05;;
14603;SDS011;7388;51.078;13.740;2022-12-07T12:13:34;10.52;;;6.97;;
14603;SDS011;7388;51.078;13.740;2022-12-07T12:21:29;9.65;;;6.82;;
14603;SDS011;7388;51.078;13.740;2022-12-07T12:23:56;13.20;;;9.13;;
14603;SDS011;7388;51.078;13.740;2022-12-07T12:26:29;11.65;;;7.38;;
14603;SDS011;7388;51.078;13.740;2022-12-07T12:31:31;14.27;;;8.98;;
14603;SDS011;7388;51.078;13.740;2022-12-07T12:34:02;9.27;;;6.32;;
14603;SDS011;7388;51.078;13.740;2022-12-07T12:44:03;7.35;;;5.13;;
14603;SDS011;7388;51.078;13.740;2022-12-07T12:46:56;10.25;;;6.60;;
14603;SDS011;7388;51.078;13.740;2022-12-07T12:54:57;6.10;;;3.90;;
14603;SDS011;7388;51.078;13.740;2022-12-07T12:57:37;5.28;;;3.00;;
14603;SDS011;7388;51.078;13.740;2022-12-07T13:02:35;4.40;;;3.10;;
14603;SDS011;7388;51.078;13.740;2022-12-07T13:05:14;3.45;;;2.22;;
14603;SDS011;7388;51.078;13.740;2022-12-07T13:08:01;1.77;;;1.63;;
14603;SDS011;7388;51.078;13.740;2022-12-07T13:10:43;2.47;;;1.33;;
14603;SDS011;7388;51.078;13.740;2022-12-07T13:15:54;1.95;;;1.50;;
14603;SDS011;7388;51.078;13.740;2022-12-07T13:20:59;2.10;;;1.43;;
14603;SDS011;7388;51.078;13.740;2022-12-07T13:26:19;7.63;;;2.72;;
14603;SDS011;7388;51.078;13.740;2022-12-07T13:28:49;2.97;;;2.15;;
14603;SDS011;7388;51.078;13.740;2022-12-07T13:31:34;4.20;;;2.88;;
14603;SDS011;7388;51.078;13.740;2022-12-07T13:37:00;2.22;;;1.85;;
14603;SDS011;7388;51.078;13.740;2022-12-07T13:39:45;2.88;;;2.33;;
14603;SDS011;7388;51.078;13.740;2022-12-07T13:44:49;4.25;;;2.70;;
14603;SDS011;7388;51.078;13.740;2022-12-07T13:50:32;3.00;;;2.10;;
14603;SDS011;7388;51.078;13.740;2022-12-07T13:52:58;4.15;;;2.88;;
14603;SDS011;7388;51.078;13.740;2022-12-07T13:55:25;7.20;;;3.50;;
14603;SDS011;7388;51.078;13.740;2022-12-07T13:57:52;5.75;;;2.92;;
14603;SDS011;7388;51.078;13.740;2022-12-07T14:00:20;10.68;;;4.25;;
14603;SDS011;7388;51.078;13.740;2022-12-07T14:07:57;14.20;;;4.55;;
14603;SDS011;7388;51.078;13.740;2022-12-07T14:12:56;5.05;;;4.05;;
14603;SDS011;7388;51.078;13.740;2022-12-07T14:15:23;6.40;;;4.97;;
14603;SDS011;7388;51.078;13.740;2022-12-07T14:18:01;6.07;;;4.45;;
14603;SDS011;7388;51.078;13.740;2022-12-07T14:20:30;6.80;;;4.60;;
14603;SDS011;7388;51.078;13.740;2022-12-07T14:23:01;6.35;;;4.63;;
14603;SDS011;7388;51.078;13.740;2022-12-07T14:26:03;9.15;;;5.82;;
14603;SDS011;7388;51.078;13.740;2022-12-07T14:28:30;4.82;;;4.10;;
14603;SDS011;7388;51.078;13.740;2022-12-07T14:30:57;9.82;;;7.03;;
14603;SDS011;7388;51.078;13.740;2022-12-07T14:33:24;6.72;;;5.05;;
14603;SDS011;7388;51.078;13.740;2022-12-07T14:35:50;8.35;;;5.00;;
14603;SDS011;7388;51.078;13.740;2022-12-07T14:38:20;5.80;;;4.85;;
14603;SDS011;7388;51.078;13.740;2022-12-07T14:40:49;6.95;;;4.53;;
14603;SDS011;7388;51.078;13.740;2022-12-07T14:43:17;6.85;;;5.00;;
14603;SDS011;7388;51.078;13.740;2022-12-07T14:45:43;7.13;;;4.45;;
14603;SDS011;7388;51.078;13.740;2022-12-07T14:48:10;6.20;;;4.43;;
14603;SDS011;7388;51.078;13.740;2022-12-07T14:50:38;5.15;;;4.65;;
14603;SDS011;7388;51.078;13.740;2022-12-07T14:53:14;6.35;;;4.72;;
14603;SDS011;7388;51.078;13.740;2022-12-07T14:55:42;9.55;;;5.07;;
14603;SDS011;7388;51.078;13.740;2022-12-07T14:58:15;7.72;;;4.63;;
14603;SDS011;7388;51.078;13.740;2022-12-07T15:00:41;8.20;;;5.32;;
14603;SDS011;7388;51.078;13.740;2022-12-07T15:03:07;9.80;;;5.60;;
14603;SDS011;7388;51.078;13.740;2022-12-07T15:05:33;6.93;;;5.10;;
14603;SDS011;7388;51.078;13.740;2022-12-07T15:08:00;9.70;;;6.30;;
14603;SDS011;7388;51.078;13.740;2022-12-07T15:10:27;8.40;;;5.40;;
14603;SDS011;7388;51.078;13.740;2022-12-07T15:13:00;9.65;;;6.03;;
14603;SDS011;7388;51.078;13.740;2022-12-07T15:15:47;11.30;;;5.75;;
14603;SDS011;7388;51.078;13.740;2022-12-07T15:18:14;9.98;;;5.32;;
14603;SDS011;7388;51.078;13.740;2022-12-07T15:20:40;9.05;;;5.88;;
14603;SDS011;7388;51.078;13.740;2022-12-07T15:23:06;7.03;;;4.97;;
14603;SDS011;7388;51.078;13.740;2022-12-07T15:25:32;6.30;;;3.53;;
14603;SDS011;7388;51.078;13.740;2022-12-07T15:27:58;11.77;;;4.00;;
14603;SDS011;7388;51.078;13.740;2022-12-07T15:30:24;8.03;;;3.10;;
14603;SDS011;7388;51.078;13.740;2022-12-07T15:32:50;5.03;;;3.27;;
14603;SDS011;7388;51.078;13.740;2022-12-07T15:35:16;5.30;;;3.40;;
14603;SDS011;7388;51.078;13.740;2022-12-07T15:37:42;5.68;;;2.95;;
14603;SDS011;7388;51.078;13.740;2022-12-07T15:40:08;3.83;;;3.13;;
14603;SDS011;7388;51.078;13.740;2022-12-07T15:42:35;8.43;;;3.97;;
14603;SDS011;7388;51.078;13.740;2022-12-07T15:45:01;5.47;;;4.55;;
14603;SDS011;7388;51.078;13.740;2022-12-07T15:47:30;5.68;;;4.45;;
14603;SDS011;7388;51.078;13.740;2022-12-07T15:50:02;5.60;;;3.78;;
14603;SDS011;7388;51.078;13.740;2022-12-07T15:52:29;4.25;;;3.85;;
14603;SDS011;7388;51.078;13.740;2022-12-07T15:54:55;10.77;;;4.53;;
14603;SDS011;7388;51.078;13.740;2022-12-07T15:57:20;5.40;;;3.57;;
14603;SDS011;7388;51.078;13.740;2022-12-07T15:59:46;6.30;;;4.40;;
14603;SDS011;7388;51.078;13.740;2022-12-07T16:02:12;6.40;;;4.60;;
14603;SDS011;7388;51.078;13.740;2022-12-07T16:04:38;11.73;;;4.53;;
14603;SDS011;7388;51.078;13.740;2022-12-07T16:07:04;5.13;;;4.10;;
14603;SDS011;7388;51.078;13.740;2022-12-07T16:09:30;5.97;;;5.18;;
14603;SDS011;7388;51.078;13.740;2022-12-07T16:11:56;4.80;;;3.67;;
14603;SDS011;7388;51.078;13.740;2022-12-07T16:14:22;8.60;;;4.80;;
14603;SDS011;7388;51.078;13.740;2022-12-07T16:16:48;5.07;;;4.15;;
14603;SDS011;7388;51.078;13.740;2022-12-07T16:19:14;9.55;;;4.32;;
14603;SDS011;7388;51.078;13.740;2022-12-07T16:21:40;9.18;;;4.75;;
14603;SDS011;7388;51.078;13.740;2022-12-07T16:24:07;8.25;;;5.05;;
14603;SDS011;7388;51.078;13.740;2022-12-07T16:26:33;6.60;;;4.20;;
14603;SDS011;7388;51.078;13.740;2022-12-07T16:28:59;6.03;;;4.20;;
14603;SDS011;7388;51.078;13.740;2022-12-07T16:31:25;11.90;;;4.30;;
14603;SDS011;7388;51.078;13.740;2022-12-07T16:33:52;5.65;;;4.13;;
14603;SDS011;7388;51.078;13.740;2022-12-07T16:36:20;7.40;;;3.90;;
14603;SDS011;7388;51.078;13.740;2022-12-07T16:38:47;6.07;;;4.05;;
14603;SDS011;7388;51.078;13.740;2022-12-07T16:41:13;7.43;;;4.93;;
14603;SDS011;7388;51.078;13.740;2022-12-07T16:43:39;5.38;;;3.35;;
14603;SDS011;7388;51.078;13.740;2022-12-07T16:46:05;5.10;;;3.70;;
14603;SDS011;7388;51.078;13.740;2022-12-07T16:48:34;4.85;;;3.70;;
14603;SDS011;7388;51.078;13.740;2022-12-07T16:51:05;5.53;;;3.70;;
14603;SDS011;7388;51.078;13.740;2022-12-07T16:53:33;5.90;;;4.90;;
14603;SDS011;7388;51.078;13.740;2022-12-07T16:55:59;6.28;;;3.80;;
14603;SDS011;7388;51.078;13.740;2022-12-07T16:58:25;11.87;;;4.40;;
14603;SDS011;7388;51.078;13.740;2022-12-07T17:00:51;5.03;;;3.30;;
14603;SDS011;7388;51.078;13.740;2022-12-07T17:03:17;6.63;;;3.57;;
14603;SDS011;7388;51.078;13.740;2022-12-07T17:05:43;5.17;;;3.67;;
14603;SDS011;7388;51.078;13.740;2022-12-07T17:08:10;4.78;;;3.38;;
14603;SDS011;7388;51.078;13.740;2022-12-07T17:10:38;7.20;;;3.05;;
14603;SDS011;7388;51.078;13.740;2022-12-07T17:13:06;8.52;;;3.70;;
14603;SDS011;7388;51.078;13.740;2022-12-07T17:16:24;3.58;;;2.45;;
14603;SDS011;7388;51.078;13.740;2022-12-07T17:18:43;4.47;;;2.30;;
14603;SDS011;7388;51.078;13.740;2022-12-07T17:21:09;5.97;;;2.73;;